createdAt,value
2023-03-26T00:01:00.508Z,8.61
2023-03-26T00:04:04.636Z,8.65
2023-03-26T00:07:06.975Z,8.54
2023-03-26T00:10:09.929Z,8.51
2023-03-26T00:13:12.575Z,8.37
2023-03-26T00:16:16.436Z,8.27
2023-03-26T00:19:18.813Z,8.24
2023-03-26T00:22:23.736Z,8.25
2023-03-26T00:25:26.222Z,8.21
2023-03-26T00:28:31.635Z,8.18
2023-03-26T00:31:34.252Z,8.14
2023-03-26T00:34:36.998Z,8.15
2023-03-26T00:37:42.452Z,8.13
2023-03-26T00:40:47.996Z,8.06
2023-03-26T00:43:51.469Z,7.96
2023-03-26T00:46:54.234Z,7.77
2023-03-26T00:49:57.553Z,7.94
2023-03-26T00:53:00.223Z,7.99
2023-03-26T00:56:03.123Z,7.99
2023-03-26T00:59:05.977Z,7.95
2023-03-26T01:02:11.546Z,7.92
2023-03-26T01:05:33.914Z,7.89
2023-03-26T01:08:45.006Z,7.80
2023-03-26T01:11:48.816Z,7.75
2023-03-26T01:14:52.310Z,7.68
2023-03-26T01:17:57.880Z,7.45
2023-03-26T01:21:05.291Z,7.28
2023-03-26T01:24:09.231Z,7.29
2023-03-26T01:27:32.306Z,7.24
2023-03-26T01:30:42.302Z,7.26
2023-03-26T01:34:03.388Z,7.14
2023-03-26T01:37:27.231Z,7.12
2023-03-26T01:40:42.861Z,7.00
2023-03-26T01:43:50.277Z,6.75
2023-03-26T01:46:53.530Z,6.57
2023-03-26T01:49:56.372Z,6.54
2023-03-26T01:52:59.569Z,6.44
2023-03-26T01:56:21.112Z,6.55
2023-03-26T01:59:42.137Z,6.50
2023-03-26T02:02:44.976Z,6.41
2023-03-26T02:05:57.946Z,6.24
2023-03-26T02:09:06.038Z,6.45
2023-03-26T02:12:09.662Z,6.44
2023-03-26T02:15:12.822Z,6.43
2023-03-26T02:18:15.481Z,6.38
2023-03-26T02:21:20.441Z,6.25
2023-03-26T02:24:22.993Z,6.17
2023-03-26T02:27:28.232Z,6.21
2023-03-26T02:30:33.645Z,6.08
2023-03-26T02:33:36.995Z,5.99
2023-03-26T02:36:39.525Z,5.87
2023-03-26T02:39:42.408Z,5.83
2023-03-26T02:42:45.700Z,5.75
2023-03-26T02:45:49.158Z,5.65
2023-03-26T02:48:54.699Z,5.56
2023-03-26T02:51:58.208Z,5.44
2023-03-26T02:55:00.692Z,5.43
2023-03-26T02:58:03.554Z,5.38
2023-03-26T03:01:06.604Z,5.44
2023-03-26T03:04:10.575Z,5.37
2023-03-26T03:07:17.955Z,5.43
2023-03-26T03:10:21.954Z,5.56
2023-03-26T03:13:26.686Z,5.56
2023-03-26T03:16:29.528Z,5.51
2023-03-26T03:19:32.465Z,5.57
2023-03-26T03:22:36.188Z,5.64
2023-03-26T03:25:41.123Z,5.76
2023-03-26T03:28:45.278Z,5.78
2023-03-26T03:31:49.227Z,5.77
2023-03-26T03:34:53.094Z,5.72
2023-03-26T03:37:56.777Z,5.81
2023-03-26T03:41:00.622Z,5.89
2023-03-26T03:44:03.216Z,5.85
2023-03-26T03:47:07.293Z,5.88
2023-03-26T03:50:10.719Z,6.10
2023-03-26T03:53:16.012Z,6.06
2023-03-26T03:56:19.610Z,5.82
2023-03-26T03:59:23.629Z,5.80
2023-03-26T04:02:30.294Z,5.82
2023-03-26T04:05:33.441Z,5.62
2023-03-26T04:08:36.381Z,5.54
2023-03-26T04:11:40.473Z,5.33
2023-03-26T04:14:43.375Z,5.22
2023-03-26T04:17:46.213Z,5.20
2023-03-26T04:20:49.866Z,5.16
2023-03-26T04:23:54.319Z,5.09
2023-03-26T04:26:58.394Z,5.01
2023-03-26T04:30:01.945Z,5.06
2023-03-26T04:33:06.728Z,5.10
2023-03-26T04:36:10.200Z,5.06
2023-03-26T04:39:13.397Z,5.04
2023-03-26T04:42:22.350Z,4.96
2023-03-26T04:45:26.426Z,4.99
2023-03-26T04:48:30.464Z,4.92
2023-03-26T04:51:38.420Z,5.11
2023-03-26T04:54:46.149Z,5.04
2023-03-26T04:57:50.762Z,5.02
2023-03-26T05:00:55.223Z,5.02
2023-03-26T05:04:00.443Z,5.06
2023-03-26T05:07:03.518Z,5.29
2023-03-26T05:10:06.786Z,5.70
2023-03-26T05:13:10.325Z,5.97
2023-03-26T05:16:14.478Z,6.32
2023-03-26T05:19:17.545Z,6.67
2023-03-26T05:22:20.180Z,6.99
2023-03-26T05:25:27.416Z,7.34
2023-03-26T05:28:30.164Z,7.60
2023-03-26T05:31:33.624Z,7.76
2023-03-26T05:34:38.280Z,8.04
2023-03-26T05:37:41.093Z,8.27
2023-03-26T05:40:43.933Z,8.48
2023-03-26T05:43:48.986Z,8.67
2023-03-26T05:46:51.886Z,8.85
2023-03-26T05:49:55.311Z,9.07
2023-03-26T05:52:58.051Z,9.31
2023-03-26T05:56:02.105Z,9.86
2023-03-26T05:59:09.737Z,13.96
2023-03-26T06:02:13.747Z,17.41
2023-03-26T06:05:17.433Z,20.98
2023-03-26T06:08:21.947Z,19.76
2023-03-26T06:11:24.691Z,17.70
2023-03-26T06:14:27.179Z,17.76
2023-03-26T06:17:33.054Z,22.54
2023-03-26T06:20:42.234Z,25.95
2023-03-26T06:23:45.276Z,27.51
2023-03-26T06:26:47.932Z,29.30
2023-03-26T06:29:52.050Z,29.03
2023-03-26T06:32:54.593Z,23.92
2023-03-26T06:35:57.794Z,23.60
2023-03-26T06:39:00.216Z,22.66
2023-03-26T06:42:11.566Z,19.03
2023-03-26T06:45:14.259Z,16.08
2023-03-26T06:48:21.185Z,16.01
2023-03-26T06:51:24.136Z,17.08
2023-03-26T06:54:28.091Z,17.11
2023-03-26T06:57:31.133Z,16.21
2023-03-26T07:00:35.855Z,16.51
2023-03-26T07:03:40.537Z,15.23
2023-03-26T07:06:50.815Z,14.33
2023-03-26T07:10:03.846Z,15.47
2023-03-26T07:13:09.374Z,17.34
2023-03-26T07:16:14.167Z,19.49
2023-03-26T07:19:18.291Z,20.29
2023-03-26T07:22:22.480Z,21.05
2023-03-26T07:25:28.526Z,20.53
2023-03-26T07:28:41.927Z,22.98
2023-03-26T07:32:00.044Z,24.21
2023-03-26T07:35:03.398Z,24.27
2023-03-26T07:38:12.038Z,25.30
2023-03-26T07:41:14.789Z,23.01
2023-03-26T07:44:35.817Z,21.90
2023-03-26T07:47:42.384Z,23.38
2023-03-26T07:50:48.242Z,25.05
2023-03-26T07:53:52.674Z,26.05
2023-03-26T07:56:59.164Z,24.82
2023-03-26T08:00:17.709Z,22.59
2023-03-26T08:03:31.803Z,21.86
2023-03-26T08:06:38.410Z,19.44
2023-03-26T08:09:54.281Z,19.00
2023-03-26T08:12:57.750Z,18.26
2023-03-26T08:16:00.568Z,18.63
2023-03-26T08:19:03.606Z,18.46
2023-03-26T08:22:13.745Z,18.04
2023-03-26T08:25:33.406Z,17.44
2023-03-26T08:28:48.706Z,16.92
2023-03-26T08:31:51.950Z,16.22
2023-03-26T08:34:54.452Z,15.97
2023-03-26T08:37:57.156Z,15.57
2023-03-26T08:41:02.913Z,15.58
2023-03-26T08:44:20.850Z,15.59
2023-03-26T08:47:38.641Z,15.90
2023-03-26T08:51:03.604Z,16.50
2023-03-26T08:54:30.155Z,16.02
2023-03-26T08:57:56.091Z,15.84
2023-03-26T09:01:17.418Z,16.18
2023-03-26T09:04:20.361Z,16.24
2023-03-26T09:07:33.495Z,16.16
2023-03-26T09:10:56.674Z,16.62
2023-03-26T09:14:17.715Z,16.98
2023-03-26T09:17:58.736Z,18.13
2023-03-26T09:21:01.295Z,18.99
2023-03-26T09:24:04.044Z,18.92
2023-03-26T09:27:08.600Z,18.89
2023-03-26T09:30:23.873Z,18.21
2023-03-26T09:33:41.245Z,18.26
2023-03-26T09:36:54.882Z,18.68
2023-03-26T09:39:57.239Z,18.23
2023-03-26T09:43:02.976Z,17.65
2023-03-26T09:46:24.148Z,17.54
2023-03-26T09:49:49.091Z,17.81
2023-03-26T09:52:57.419Z,18.47
2023-03-26T09:56:11.786Z,18.30
2023-03-26T09:59:33.159Z,17.76
2023-03-26T10:02:45.551Z,17.46
2023-03-26T10:05:52.375Z,17.62
2023-03-26T10:09:03.852Z,17.26
2023-03-26T10:12:20.728Z,17.37
2023-03-26T10:15:25.995Z,17.75
2023-03-26T10:18:37.764Z,17.69
2023-03-26T10:21:45.938Z,17.35
2023-03-26T10:24:57.398Z,17.16
2023-03-26T10:28:06.035Z,17.40
2023-03-26T10:31:27.980Z,17.43
2023-03-26T10:35:06.003Z,17.12
2023-03-26T10:38:23.699Z,16.92
2023-03-26T10:41:38.249Z,16.32
2023-03-26T10:44:44.955Z,16.01
2023-03-26T10:48:06.081Z,16.07
2023-03-26T10:51:28.365Z,15.94
2023-03-26T10:54:31.287Z,16.59
2023-03-26T10:57:40.008Z,17.39
2023-03-26T11:01:00.924Z,17.31
2023-03-26T11:04:16.662Z,17.59
2023-03-26T11:07:29.290Z,17.51
2023-03-26T11:10:31.949Z,17.54
2023-03-26T11:13:34.275Z,17.31
2023-03-26T11:16:47.179Z,17.56
2023-03-26T11:19:55.549Z,17.32
2023-03-26T11:23:04.247Z,17.05
2023-03-26T11:26:16.210Z,16.94
2023-03-26T11:29:31.619Z,17.40
2023-03-26T11:32:44.987Z,17.65
2023-03-26T11:35:49.903Z,17.36
2023-03-26T11:38:55.892Z,17.09
2023-03-26T11:42:11.372Z,16.57
2023-03-26T11:45:24.150Z,16.52
2023-03-26T11:48:46.772Z,17.19
2023-03-26T11:51:49.216Z,17.54
2023-03-26T11:54:51.794Z,17.50
2023-03-26T11:57:55.468Z,17.60
2023-03-26T12:00:59.104Z,18.38
2023-03-26T12:04:24.823Z,18.61
2023-03-26T12:07:34.154Z,19.39
2023-03-26T12:10:38.804Z,19.49
2023-03-26T12:13:44.722Z,19.12
2023-03-26T12:17:01.648Z,18.64
2023-03-26T12:20:22.792Z,18.31
2023-03-26T12:23:52.499Z,18.36
2023-03-26T12:27:02.286Z,18.61
2023-03-26T12:30:19.791Z,18.59
2023-03-26T12:33:27.934Z,18.81
2023-03-26T12:36:33.258Z,19.30
2023-03-26T12:40:06.775Z,19.29
2023-03-26T12:44:54.391Z,19.61
2023-03-26T12:47:57.926Z,19.01
2023-03-26T12:49:55.227Z,19.22
2023-03-26T12:53:07.259Z,19.44
2023-03-26T12:56:22.022Z,19.08
2023-03-26T12:59:30.226Z,19.29
2023-03-26T13:02:33.470Z,19.52
2023-03-26T13:05:36.499Z,19.55
2023-03-26T13:08:46.556Z,19.81
2023-03-26T13:12:09.407Z,19.45
2023-03-26T13:15:15.290Z,19.43
2023-03-26T13:18:18.185Z,19.01
2023-03-26T13:21:28.628Z,19.20
2023-03-26T13:24:38.142Z,19.44
2023-03-26T13:27:44.235Z,19.34
2023-03-26T13:30:51.274Z,19.11
2023-03-26T13:34:07.262Z,19.07
2023-03-26T13:37:22.985Z,18.46
2023-03-26T13:40:42.469Z,17.72
2023-03-26T13:43:51.712Z,17.96
2023-03-26T13:47:14.600Z,17.74
2023-03-26T13:50:17.252Z,17.91
2023-03-26T13:53:25.802Z,18.37
2023-03-26T13:56:31.616Z,18.96
2023-03-26T13:59:34.416Z,19.07
2023-03-26T14:02:41.786Z,19.20
2023-03-26T14:05:47.198Z,19.37
2023-03-26T14:09:04.988Z,19.22
2023-03-26T14:12:21.418Z,19.25
2023-03-26T14:15:47.370Z,19.65
2023-03-26T14:19:08.962Z,19.46
2023-03-26T14:22:20.621Z,19.60
2023-03-26T14:25:41.861Z,19.24
2023-03-26T14:29:03.274Z,18.97
2023-03-26T14:32:26.131Z,18.82
2023-03-26T14:35:28.556Z,18.65
2023-03-26T14:38:40.665Z,18.56
2023-03-26T14:41:51.648Z,18.73
2023-03-26T14:44:54.250Z,18.70
2023-03-26T14:48:16.884Z,18.65
2023-03-26T14:51:19.896Z,18.24
2023-03-26T14:54:27.938Z,18.45
2023-03-26T14:57:45.948Z,18.51
2023-03-26T15:01:03.911Z,18.25
2023-03-26T15:04:38.355Z,17.94
2023-03-26T15:08:10.181Z,17.72
2023-03-26T15:11:31.574Z,17.81
2023-03-26T15:14:41.738Z,17.78
2023-03-26T15:17:50.471Z,17.93
2023-03-26T15:21:05.232Z,18.08
2023-03-26T15:24:26.878Z,18.11
2023-03-26T15:27:29.340Z,18.12
2023-03-26T15:30:35.070Z,18.12
2023-03-26T15:33:40.442Z,18.02
2023-03-26T15:36:44.694Z,17.68
2023-03-26T15:40:07.979Z,17.38
2023-03-26T15:43:14.964Z,17.10
2023-03-26T15:46:31.332Z,16.87
2023-03-26T15:49:37.174Z,16.74
2023-03-26T15:52:48.527Z,16.60
2023-03-26T15:56:09.734Z,16.60
2023-03-26T15:59:19.553Z,16.54
2023-03-26T16:02:44.019Z,16.48
2023-03-26T16:05:56.359Z,16.45
2023-03-26T16:09:22.031Z,16.34
2023-03-26T16:12:31.860Z,16.19
2023-03-26T16:15:35.195Z,15.99
2023-03-26T16:18:40.981Z,15.80
2023-03-26T16:21:46.391Z,15.64
2023-03-26T16:25:26.903Z,15.51
2023-03-26T16:28:33.871Z,15.37
2023-03-26T16:31:39.211Z,15.25
2023-03-26T16:35:02.013Z,15.14
2023-03-26T16:38:06.056Z,14.99
2023-03-26T16:41:34.755Z,14.83
2023-03-26T16:44:51.804Z,14.78
2023-03-26T16:48:02.979Z,14.68
2023-03-26T16:51:16.955Z,14.68
2023-03-26T16:54:34.584Z,14.58
2023-03-26T16:57:43.715Z,14.50
2023-03-26T17:00:52.438Z,14.52
2023-03-26T17:03:58.888Z,14.42
2023-03-26T17:07:20.057Z,14.31
2023-03-26T17:10:36.477Z,14.19
2023-03-26T17:13:51.586Z,13.98
2023-03-26T17:17:32.994Z,13.86
2023-03-26T17:20:40.015Z,13.77
2023-03-26T17:23:59.535Z,13.78
2023-03-26T17:27:17.686Z,13.74
2023-03-26T17:30:23.499Z,13.62
2023-03-26T17:33:27.890Z,13.63
2023-03-26T17:36:39.823Z,13.58
2023-03-26T17:39:48.204Z,13.55
2023-03-26T17:43:00.793Z,13.56
2023-03-26T17:46:04.561Z,13.53
2023-03-26T17:49:17.026Z,13.52
2023-03-26T17:52:25.241Z,13.47
2023-03-26T17:55:31.170Z,13.54
2023-03-26T17:58:42.665Z,13.57
2023-03-26T18:01:47.589Z,13.41
2023-03-26T18:04:52.855Z,13.31
2023-03-26T18:08:04.080Z,13.34
2023-03-26T18:11:26.367Z,13.50
2023-03-26T18:14:51.750Z,13.44
2023-03-26T18:18:23.758Z,13.46
2023-03-26T18:21:35.061Z,13.54
2023-03-26T18:24:38.727Z,13.60
2023-03-26T18:27:41.153Z,13.63
2023-03-26T18:30:48.016Z,13.64
2023-03-26T18:33:54.317Z,13.71
2023-03-26T18:37:02.655Z,13.78
2023-03-26T18:40:12.461Z,13.75
2023-03-26T18:43:34.146Z,13.75
2023-03-26T18:46:37.300Z,13.70
2023-03-26T18:49:41.826Z,13.67
2023-03-26T18:52:44.450Z,13.71
2023-03-26T18:55:48.116Z,13.63
2023-03-26T18:58:51.357Z,13.55
2023-03-26T19:01:57.722Z,13.58
2023-03-26T19:05:03.604Z,13.55
2023-03-26T19:08:06.718Z,13.43
2023-03-26T19:11:10.759Z,13.35
2023-03-26T19:14:17.004Z,13.31
2023-03-26T19:17:19.549Z,13.31
2023-03-26T19:20:26.165Z,13.23
2023-03-26T19:23:38.961Z,13.14
2023-03-26T19:26:42.480Z,13.12
2023-03-26T19:29:44.953Z,13.22
2023-03-26T19:32:55.016Z,13.28
2023-03-26T19:36:14.621Z,13.33
2023-03-26T19:39:24.371Z,13.28
2023-03-26T19:42:42.983Z,13.24
2023-03-26T19:46:00.210Z,13.25
2023-03-26T19:49:04.195Z,13.15
2023-03-26T19:52:17.564Z,13.00
2023-03-26T19:55:24.249Z,12.98
2023-03-26T19:58:27.148Z,12.97
2023-03-26T20:01:30.458Z,12.89
2023-03-26T20:04:33.114Z,12.84
2023-03-26T20:07:39.295Z,12.72
2023-03-26T20:10:43.079Z,12.70
2023-03-26T20:13:46.350Z,12.70
2023-03-26T20:16:49.364Z,12.67
2023-03-26T20:19:52.473Z,12.67
2023-03-26T20:22:55.233Z,12.57
2023-03-26T20:25:57.788Z,12.59
2023-03-26T20:29:00.676Z,12.47
2023-03-26T20:32:06.422Z,12.42
2023-03-26T20:35:16.518Z,12.39
2023-03-26T20:38:21.695Z,12.37
2023-03-26T20:41:24.606Z,12.28
2023-03-26T20:44:27.330Z,12.26
2023-03-26T20:47:29.885Z,12.40
2023-03-26T20:50:35.806Z,12.33
2023-03-26T20:53:38.929Z,12.32
2023-03-26T20:56:41.644Z,12.24
2023-03-26T20:59:45.706Z,12.24
2023-03-26T21:02:53.463Z,12.16
2023-03-26T21:05:59.158Z,12.29
2023-03-26T21:09:01.563Z,12.31
2023-03-26T21:12:07.822Z,12.27
2023-03-26T21:15:22.448Z,12.31
2023-03-26T21:18:26.605Z,12.33
2023-03-26T21:21:39.621Z,12.34
2023-03-26T21:24:45.679Z,12.33
2023-03-26T21:27:54.140Z,12.33
2023-03-26T21:30:58.074Z,12.54
2023-03-26T21:34:00.724Z,12.55
2023-03-26T21:37:03.580Z,12.56
2023-03-26T21:40:16.969Z,12.43
2023-03-26T21:43:20.668Z,12.05
2023-03-26T21:46:23.128Z,11.67
2023-03-26T21:49:26.450Z,11.39
2023-03-26T21:52:30.227Z,11.16
2023-03-26T21:55:38.710Z,11.10
2023-03-26T21:58:56.105Z,11.03
2023-03-26T22:01:58.960Z,11.02
2023-03-26T22:05:04.070Z,10.94
2023-03-26T22:08:08.131Z,10.94
2023-03-26T22:11:11.455Z,10.96
2023-03-26T22:14:14.397Z,10.88
2023-03-26T22:17:17.058Z,10.82
2023-03-26T22:20:22.264Z,10.84
2023-03-26T22:23:34.368Z,10.89
2023-03-26T22:26:37.562Z,10.87
2023-03-26T22:29:40.289Z,11.00
2023-03-26T22:32:43.538Z,10.99
2023-03-26T22:35:47.042Z,11.04
2023-03-26T22:38:52.963Z,10.86
2023-03-26T22:41:55.865Z,10.77
2023-03-26T22:44:58.241Z,10.62
2023-03-26T22:48:04.473Z,10.52
2023-03-26T22:51:09.096Z,10.34
2023-03-26T22:54:11.723Z,10.05
2023-03-26T22:57:14.160Z,9.85
2023-03-26T23:00:19.811Z,9.80
2023-03-26T23:03:35.117Z,9.61
2023-03-26T23:06:38.281Z,9.41
2023-03-26T23:09:40.844Z,9.31
2023-03-26T23:12:43.565Z,9.16
2023-03-26T23:15:47.838Z,9.10
2023-03-26T23:18:50.652Z,9.05
2023-03-26T23:21:52.942Z,9.00
2023-03-26T23:24:55.898Z,8.94
2023-03-26T23:27:58.494Z,8.88
2023-03-26T23:31:02.541Z,8.93
2023-03-26T23:34:05.020Z,9.01
2023-03-26T23:37:10.932Z,9.16
2023-03-26T23:40:13.859Z,9.13
2023-03-26T23:43:17.455Z,9.06
2023-03-26T23:46:22.173Z,9.06
2023-03-26T23:49:25.487Z,9.05
2023-03-26T23:52:28.683Z,9.06
2023-03-26T23:55:31.373Z,9.05
2023-03-26T23:58:33.897Z,9.08
